createdAt,value
2017-05-09T07:11:33.183Z,21.82
2017-05-09T07:12:34.611Z,21.78
2017-05-09T07:13:36.053Z,21.87
2017-05-09T07:14:37.488Z,21.78
2017-05-09T07:15:38.925Z,21.81
2017-05-09T07:16:40.370Z,21.90
2017-05-09T07:17:41.801Z,21.76
2017-05-09T07:18:43.236Z,21.90
2017-05-09T07:19:44.668Z,21.95
2017-05-09T07:20:46.102Z,21.97
2017-05-09T07:21:48.194Z,21.97
2017-05-09T07:22:49.649Z,21.98
2017-05-09T07:23:51.078Z,22.12
2017-05-09T07:24:52.516Z,22.07
2017-05-09T07:25:53.949Z,22.13
2017-05-09T07:26:55.401Z,22.19
2017-05-09T07:27:56.825Z,22.22
2017-05-09T07:28:58.322Z,22.35
2017-05-09T07:29:59.818Z,22.35
2017-05-09T07:31:01.247Z,22.39
2017-05-09T07:32:02.742Z,22.50
2017-05-09T07:33:04.230Z,22.43
2017-05-09T07:34:05.669Z,22.56
2017-05-09T07:35:07.101Z,22.49
2017-05-09T07:36:08.539Z,22.50
2017-05-09T07:37:10.012Z,22.64
2017-05-09T07:38:11.683Z,22.64
2017-05-09T07:39:13.229Z,22.65
2017-05-09T07:40:14.668Z,22.72
2017-05-09T07:41:16.123Z,22.74
2017-05-09T07:42:17.600Z,22.83
2017-05-09T07:43:19.040Z,22.84
2017-05-09T07:44:20.699Z,22.86
2017-05-09T07:45:22.400Z,22.84
2017-05-09T07:46:24.050Z,23.01
2017-05-09T07:47:25.585Z,22.99
2017-05-09T07:48:27.348Z,23.05
2017-05-09T07:49:28.786Z,23.02
2017-05-09T07:50:30.225Z,23.01
2017-05-09T07:51:31.664Z,23.05
2017-05-09T07:52:33.099Z,23.04
2017-05-09T07:53:34.527Z,23.17
2017-05-09T07:54:35.971Z,23.22
2017-05-09T07:55:37.428Z,23.40
2017-05-09T07:56:38.936Z,23.49
2017-05-09T07:57:40.407Z,23.55
2017-05-09T07:58:41.895Z,23.60
2017-05-09T07:59:43.339Z,23.65
2017-05-09T08:00:44.787Z,23.83
2017-05-09T08:01:46.230Z,23.75
2017-05-09T08:02:47.678Z,23.87
2017-05-09T08:03:49.113Z,23.94
2017-05-09T08:04:50.643Z,23.94
2017-05-09T08:05:52.089Z,24.04
2017-05-09T08:06:53.532Z,24.07
2017-05-09T08:07:54.976Z,24.12
2017-05-09T08:08:56.454Z,24.05
2017-05-09T08:09:57.922Z,23.92
2017-05-09T08:10:59.390Z,24.04
2017-05-09T08:12:00.821Z,23.98
2017-05-09T08:13:02.315Z,23.90
2017-05-09T08:14:03.760Z,23.92
2017-05-09T08:15:05.512Z,24.01
2017-05-09T08:16:06.994Z,24.07
2017-05-09T08:17:08.476Z,24.16
2017-05-09T08:18:10.376Z,24.17
2017-05-09T08:19:12.720Z,24.17
2017-05-09T08:20:14.382Z,24.29
2017-05-09T08:21:16.378Z,24.35
2017-05-09T08:22:18.367Z,24.35
2017-05-09T08:23:20.014Z,24.39
2017-05-09T08:24:23.312Z,24.44
2017-05-09T08:25:24.645Z,24.47
2017-05-09T08:26:29.282Z,24.61
2017-05-09T08:27:31.518Z,24.59
2017-05-09T08:28:35.018Z,24.60
2017-05-09T08:29:36.412Z,24.68
2017-05-09T08:30:37.953Z,24.68
2017-05-09T08:31:39.390Z,24.69
2017-05-09T08:32:40.929Z,24.79
2017-05-09T08:33:42.525Z,24.75
2017-05-09T08:34:44.041Z,24.83
2017-05-09T08:35:45.522Z,24.82
2017-05-09T08:36:47.022Z,24.91
2017-05-09T08:37:48.759Z,24.91
2017-05-09T08:38:50.293Z,24.90
2017-05-09T08:39:51.929Z,24.92
2017-05-09T08:40:53.526Z,24.92
2017-05-09T08:41:55.063Z,25.01
2017-05-09T08:42:56.509Z,24.94
2017-05-09T08:43:58.111Z,25.01
2017-05-09T08:44:59.563Z,25.06
2017-05-09T08:46:01.003Z,25.02
2017-05-09T08:47:02.460Z,25.01
2017-05-09T08:48:03.928Z,25.06
2017-05-09T08:49:05.430Z,25.15
2017-05-09T08:50:06.979Z,25.13
2017-05-09T08:51:08.431Z,25.10
2017-05-09T08:52:09.917Z,25.20
2017-05-09T08:53:11.470Z,25.20
2017-05-09T08:54:13.041Z,25.28
2017-05-09T08:55:14.543Z,25.28
2017-05-09T08:56:16.082Z,25.24
2017-05-09T08:57:17.584Z,25.15
2017-05-09T08:58:19.010Z,25.10
2017-05-09T08:59:20.461Z,25.07
2017-05-09T09:00:21.949Z,25.06
2017-05-09T09:01:23.424Z,25.05
2017-05-09T09:02:25.078Z,25.06
2017-05-09T09:03:26.658Z,25.07
2017-05-09T09:04:28.213Z,25.06
2017-05-09T09:05:29.889Z,25.01
2017-05-09T09:06:31.478Z,25.05
2017-05-09T09:07:32.929Z,25.02
2017-05-09T09:08:34.310Z,25.13
2017-05-09T09:09:35.753Z,25.00
2017-05-09T09:10:37.206Z,25.00
2017-05-09T09:11:38.767Z,25.13
2017-05-09T09:12:40.242Z,25.02
2017-05-09T09:13:41.677Z,25.12
2017-05-09T09:14:43.115Z,25.02
2017-05-09T09:15:44.549Z,25.02
2017-05-09T09:16:46.023Z,24.97
2017-05-09T09:17:47.563Z,25.02
2017-05-09T09:18:49.025Z,25.02
2017-05-09T09:19:50.463Z,25.06
2017-05-09T09:20:51.905Z,25.00
2017-05-09T09:21:53.410Z,25.02
2017-05-09T09:22:54.929Z,25.05
2017-05-09T09:23:56.397Z,25.05
2017-05-09T09:24:58.001Z,25.01
2017-05-09T09:25:59.499Z,25.06
2017-05-09T09:27:00.949Z,25.07
2017-05-09T09:28:02.340Z,25.02
2017-05-09T09:29:03.936Z,25.09
2017-05-09T09:30:05.489Z,25.15
2017-05-09T09:31:06.929Z,25.17
2017-05-09T09:32:08.325Z,25.12
2017-05-09T09:33:09.791Z,25.13
2017-05-09T09:34:11.266Z,25.09
2017-05-09T09:35:12.713Z,25.13
2017-05-09T09:36:14.259Z,25.15
2017-05-09T09:37:15.901Z,25.15
2017-05-09T09:38:17.415Z,25.16
2017-05-09T09:39:18.844Z,25.13
2017-05-09T09:40:20.291Z,25.10
2017-05-09T09:41:21.740Z,25.17
2017-05-09T09:42:23.233Z,25.16
2017-05-09T09:43:24.743Z,25.12
2017-05-09T09:44:26.352Z,25.13
2017-05-09T09:45:27.992Z,25.22
2017-05-09T09:46:29.558Z,25.12
2017-05-09T09:47:31.001Z,25.13
2017-05-09T09:48:32.463Z,25.15
2017-05-09T09:49:34.040Z,25.13
2017-05-09T09:50:35.560Z,25.10
2017-05-09T09:51:37.148Z,25.16
2017-05-09T09:52:38.677Z,25.19
2017-05-09T09:53:40.145Z,25.28
2017-05-09T09:54:41.655Z,25.25
2017-05-09T09:55:43.233Z,25.25
2017-05-09T09:56:44.679Z,25.20
2017-05-09T09:57:46.157Z,25.22
2017-05-09T09:58:47.630Z,25.20
2017-05-09T09:59:49.074Z,25.28
2017-05-09T10:00:50.705Z,25.17
2017-05-09T10:01:52.527Z,25.28
2017-05-09T10:02:54.015Z,25.20
2017-05-09T10:03:55.464Z,25.22
2017-05-09T10:04:56.954Z,25.19
2017-05-09T10:05:58.449Z,25.24
2017-05-09T10:07:00.075Z,25.25
2017-05-09T10:08:01.696Z,25.20
2017-05-09T10:09:03.243Z,25.22
2017-05-09T10:10:04.685Z,25.22
2017-05-09T10:11:06.152Z,25.27
2017-05-09T10:12:07.558Z,25.10
2017-05-09T10:13:09.168Z,25.19
2017-05-09T10:14:10.876Z,25.25
2017-05-09T10:15:12.563Z,25.27
2017-05-09T10:16:15.319Z,25.22
2017-05-09T10:17:18.718Z,25.17
2017-05-09T10:18:20.162Z,25.27
2017-05-09T10:19:21.597Z,25.20
2017-05-09T10:20:23.097Z,25.25
2017-05-09T10:21:24.672Z,25.19
2017-05-09T10:22:26.302Z,25.15
2017-05-09T10:23:27.767Z,25.24
2017-05-09T10:24:29.288Z,25.24
2017-05-09T10:25:30.729Z,25.24
2017-05-09T10:26:32.217Z,25.22
2017-05-09T10:27:33.665Z,25.31
2017-05-09T10:28:35.088Z,25.25
2017-05-09T10:29:36.539Z,25.24
2017-05-09T10:30:38.014Z,25.22
2017-05-09T10:31:39.523Z,25.24
2017-05-09T10:32:40.961Z,25.27
2017-05-09T10:33:42.400Z,25.24
2017-05-09T10:34:43.840Z,25.28
2017-05-09T10:35:45.406Z,25.22
2017-05-09T10:36:46.910Z,25.27
2017-05-09T10:37:48.385Z,25.25
2017-05-09T10:38:49.846Z,25.25
2017-05-09T10:39:51.363Z,25.27
2017-05-09T10:40:52.805Z,25.22
2017-05-09T10:41:54.252Z,25.27
2017-05-09T10:42:55.685Z,25.31
2017-05-09T10:43:57.126Z,25.27
2017-05-09T10:44:59.159Z,25.30
2017-05-09T10:46:00.455Z,25.30
2017-05-09T10:47:01.907Z,25.30
2017-05-09T10:48:03.347Z,25.34
2017-05-09T10:49:04.824Z,25.34
2017-05-09T10:50:06.395Z,25.31
2017-05-09T10:51:07.843Z,25.32
2017-05-09T10:52:09.304Z,25.31
2017-05-09T10:53:11.016Z,25.28
2017-05-09T10:54:12.606Z,25.32
2017-05-09T10:55:14.081Z,25.25
2017-05-09T10:56:15.608Z,25.19
2017-05-09T10:57:17.193Z,25.30
2017-05-09T10:58:18.765Z,25.25
2017-05-09T10:59:20.231Z,25.25
2017-05-09T11:00:21.678Z,25.25
2017-05-09T11:01:23.136Z,25.24
2017-05-09T11:02:24.575Z,25.25
2017-05-09T11:03:26.024Z,25.25
2017-05-09T11:04:27.470Z,25.22
2017-05-09T11:05:28.912Z,25.22
2017-05-09T11:06:30.409Z,25.22
2017-05-09T11:07:31.854Z,25.20
2017-05-09T11:08:33.294Z,25.15
2017-05-09T11:09:34.740Z,25.15
2017-05-09T11:10:36.208Z,25.16
2017-05-09T11:11:37.646Z,25.19
2017-05-09T11:12:39.134Z,25.13
2017-05-09T11:13:40.583Z,25.24
2017-05-09T11:14:42.041Z,25.25
2017-05-09T11:15:43.597Z,25.34
2017-05-09T11:16:45.090Z,25.37
2017-05-09T11:17:46.571Z,25.34
2017-05-09T11:18:48.395Z,25.37
2017-05-09T11:19:50.009Z,25.37
2017-05-09T11:20:51.638Z,25.35
2017-05-09T11:21:53.076Z,25.43
2017-05-09T11:22:54.458Z,25.39
2017-05-09T11:23:55.901Z,25.38
2017-05-09T11:24:57.334Z,25.42
2017-05-09T11:25:58.771Z,25.38
2017-05-09T11:27:00.212Z,25.42
2017-05-09T11:28:01.683Z,25.47
2017-05-09T11:29:03.115Z,25.49
2017-05-09T11:30:04.549Z,25.50
2017-05-09T11:31:05.989Z,25.49
2017-05-09T11:32:07.427Z,25.54
2017-05-09T11:33:08.865Z,25.57
2017-05-09T11:34:10.371Z,25.61
2017-05-09T11:35:11.794Z,25.61
2017-05-09T11:36:13.236Z,25.56
2017-05-09T11:37:14.714Z,25.62
2017-05-09T11:38:16.178Z,25.65
2017-05-09T11:39:17.635Z,25.62
2017-05-09T11:40:19.085Z,25.64
2017-05-09T11:41:20.538Z,25.64
2017-05-09T11:42:22.137Z,25.64
2017-05-09T11:43:23.827Z,25.69
2017-05-09T11:44:25.393Z,25.67
2017-05-09T11:45:26.839Z,25.65
2017-05-09T11:46:28.393Z,25.72
2017-05-09T11:47:29.872Z,25.68
2017-05-09T11:48:31.344Z,25.72
2017-05-09T11:49:32.869Z,25.67
2017-05-09T11:50:34.339Z,25.68
2017-05-09T11:51:35.793Z,25.69
2017-05-09T11:52:37.233Z,25.69
2017-05-09T11:53:38.682Z,25.74
2017-05-09T11:54:40.140Z,25.67
2017-05-09T11:55:41.586Z,25.75
2017-05-09T11:56:43.021Z,25.69
2017-05-09T11:57:44.462Z,25.75
2017-05-09T11:58:45.932Z,25.72
2017-05-09T11:59:47.349Z,25.77
2017-05-09T12:00:48.794Z,25.74
2017-05-09T12:01:50.227Z,25.68
2017-05-09T12:02:51.660Z,25.72
2017-05-09T12:03:53.118Z,25.77
2017-05-09T12:04:54.571Z,25.77
2017-05-09T12:05:56.028Z,25.80
2017-05-09T12:06:57.492Z,25.86
2017-05-09T12:07:58.925Z,25.77
2017-05-09T12:09:00.380Z,25.71
2017-05-09T12:10:01.825Z,25.79
2017-05-09T12:11:03.269Z,25.87
2017-05-09T12:12:04.842Z,25.75
2017-05-09T12:13:06.392Z,25.91
2017-05-09T12:14:09.419Z,25.80
2017-05-09T12:15:11.025Z,25.75
